Pottsboro, Texas
Current Conditions -  °F | °C
As of 10:15 AM on Thursday 29 Jan 2015 (Local Time) from KGYI Reporting Station
Clear Clear  
Wind Chill: 59°   Ceiling: Unl
Heat Index: 59°   Visibility: 10mi
Dew Point: 39°   Wind: 13mph
Humidity: 47%   Direction: 350°N
Pressure: 30.31"   Gusts: 20mph
Location:  33.76°N, 96.67°W
Report Text: KGYI 291615Z AUTO 35011G17KT 10SM CLR 15/04 A3031 RMK AO2 T01520040
Loading
Personal Weather Stations






























Interactive Weather Map New forecast layout! Learn more

10-Day Weather Forecast

Advertisements
Track Severe Weather on mobile